createdAt,value
2017-10-20T00:01:45.068Z,10.37
2017-10-20T00:04:12.770Z,8.93
2017-10-20T00:06:41.200Z,9.43
2017-10-20T00:09:08.912Z,10.30
2017-10-20T00:11:37.334Z,9.90
2017-10-20T00:14:05.035Z,10.90
2017-10-20T00:16:32.695Z,10.70
2017-10-20T00:19:00.403Z,11.20
2017-10-20T00:21:28.065Z,10.83
2017-10-20T00:23:55.774Z,10.40
2017-10-20T00:26:23.437Z,10.40
2017-10-20T00:28:51.134Z,10.97
2017-10-20T00:31:18.800Z,10.17
2017-10-20T00:33:46.528Z,10.20
2017-10-20T00:36:14.192Z,10.27
2017-10-20T00:38:42.688Z,10.37
2017-10-20T00:41:10.399Z,10.80
2017-10-20T00:43:38.102Z,11.40
2017-10-20T00:46:06.531Z,11.10
2017-10-20T00:48:34.271Z,10.07
2017-10-20T00:51:01.939Z,10.87
2017-10-20T00:53:29.663Z,10.20
2017-10-20T00:55:58.143Z,11.37
2017-10-20T00:58:26.670Z,10.47
2017-10-20T01:00:54.346Z,11.30
2017-10-20T01:03:22.063Z,11.03
2017-10-20T01:05:49.722Z,10.00
2017-10-20T01:08:17.431Z,10.37
2017-10-20T01:10:45.112Z,10.30
2017-10-20T01:13:13.583Z,10.40
2017-10-20T01:15:42.043Z,10.27
2017-10-20T01:18:09.783Z,10.27
2017-10-20T01:20:37.455Z,9.97
2017-10-20T01:23:05.237Z,10.60
2017-10-20T01:25:32.964Z,12.00
2017-10-20T01:28:00.689Z,10.47
2017-10-20T01:30:28.411Z,10.10
2017-10-20T01:32:56.163Z,10.50
2017-10-20T01:35:23.896Z,11.37
2017-10-20T01:37:51.649Z,9.70
2017-10-20T01:40:19.372Z,10.73
2017-10-20T01:42:47.906Z,10.40
2017-10-20T01:45:15.638Z,10.23
2017-10-20T01:47:43.408Z,11.10
2017-10-20T01:50:11.131Z,11.63
2017-10-20T01:52:38.888Z,11.90
2017-10-20T01:55:06.607Z,10.70
2017-10-20T01:57:34.412Z,10.90
2017-10-20T02:00:02.144Z,10.07
2017-10-20T02:02:29.819Z,11.17
2017-10-20T02:04:57.540Z,11.70
2017-10-20T02:07:25.211Z,11.10
2017-10-20T02:09:52.958Z,12.47
2017-10-20T02:12:20.659Z,11.23
2017-10-20T02:14:48.388Z,12.37
2017-10-20T02:17:16.065Z,12.23
2017-10-20T02:19:43.800Z,13.07
2017-10-20T02:22:11.480Z,13.13
2017-10-20T02:24:39.231Z,13.27
2017-10-20T02:27:06.916Z,11.23
2017-10-20T02:29:34.660Z,11.90
2017-10-20T02:32:02.351Z,11.83
2017-10-20T02:34:30.109Z,12.87
2017-10-20T02:36:57.799Z,12.00
2017-10-20T02:39:25.567Z,11.30
2017-10-20T02:41:53.267Z,12.47
2017-10-20T02:44:20.998Z,12.17
2017-10-20T02:46:48.676Z,12.40
2017-10-20T02:49:16.407Z,13.30
2017-10-20T02:51:44.147Z,12.37
2017-10-20T02:54:12.657Z,11.80
2017-10-20T02:56:40.319Z,10.73
2017-10-20T02:59:10.046Z,10.97
2017-10-20T03:01:37.783Z,12.30
2017-10-20T03:04:05.540Z,11.17
2017-10-20T03:06:33.219Z,11.17
2017-10-20T03:09:00.936Z,11.87
2017-10-20T03:11:29.415Z,11.20
2017-10-20T03:13:57.891Z,11.80
2017-10-20T03:16:25.552Z,12.17
2017-10-20T03:18:54.035Z,11.57
2017-10-20T03:21:22.468Z,12.47
2017-10-20T03:23:50.181Z,11.50
2017-10-20T03:26:18.716Z,11.90
2017-10-20T03:28:46.432Z,11.20
2017-10-20T03:31:14.109Z,10.63
2017-10-20T03:33:41.823Z,12.00
2017-10-20T03:36:09.496Z,14.33
2017-10-20T03:38:37.977Z,11.73
2017-10-20T03:41:06.419Z,11.93
2017-10-20T03:43:34.127Z,12.10
2017-10-20T03:46:01.791Z,11.93
2017-10-20T03:48:29.503Z,12.67
2017-10-20T03:50:57.180Z,12.70
2017-10-20T03:53:24.927Z,13.30
2017-10-20T03:55:52.591Z,12.33
2017-10-20T03:58:20.351Z,13.47
2017-10-20T04:00:48.019Z,13.50
2017-10-20T04:03:15.756Z,13.00
2017-10-20T04:05:43.447Z,12.77
2017-10-20T04:08:11.948Z,12.20
2017-10-20T04:10:39.696Z,11.50
2017-10-20T04:13:08.217Z,11.43
2017-10-20T04:15:35.927Z,12.13
2017-10-20T04:18:04.408Z,12.80
2017-10-20T04:20:32.892Z,12.60
2017-10-20T04:23:01.325Z,13.43
2017-10-20T04:25:29.032Z,11.90
2017-10-20T04:27:57.463Z,11.53
2017-10-20T04:30:25.175Z,11.47
2017-10-20T04:32:53.608Z,11.80
2017-10-20T04:35:21.319Z,10.70
2017-10-20T04:37:48.996Z,11.20
2017-10-20T04:40:16.731Z,12.70
2017-10-20T04:42:45.163Z,13.80
2017-10-20T04:45:12.871Z,11.67
2017-10-20T04:47:40.548Z,12.17
2017-10-20T04:50:08.272Z,13.23
2017-10-20T04:52:36.707Z,13.70
2017-10-20T04:55:04.415Z,13.00
2017-10-20T04:57:32.960Z,14.87
2017-10-20T05:00:00.696Z,12.63
2017-10-20T05:02:28.364Z,12.40
2017-10-20T05:04:56.070Z,11.83
2017-10-20T05:07:23.734Z,12.83
2017-10-20T05:09:52.225Z,13.27
2017-10-20T05:12:20.659Z,12.97
2017-10-20T05:14:48.366Z,12.50
2017-10-20T05:17:16.791Z,12.47
2017-10-20T05:19:44.500Z,11.13
2017-10-20T05:22:12.932Z,14.33
2017-10-20T05:24:41.543Z,11.43
2017-10-20T05:27:09.983Z,12.10
2017-10-20T05:29:37.694Z,12.90
2017-10-20T05:32:06.125Z,13.30
2017-10-20T05:34:33.852Z,13.30
2017-10-20T05:37:01.549Z,13.27
2017-10-20T05:39:29.251Z,12.23
2017-10-20T05:41:57.684Z,11.43
2017-10-20T05:44:25.411Z,12.43
2017-10-20T05:46:53.088Z,12.27
2017-10-20T05:49:20.800Z,12.97
2017-10-20T05:51:49.241Z,12.73
2017-10-20T05:54:16.968Z,11.10
2017-10-20T05:56:44.632Z,11.57
2017-10-20T05:59:12.357Z,11.93
2017-10-20T06:01:40.792Z,10.80
2017-10-20T06:04:08.514Z,20.27
2017-10-20T06:06:36.192Z,16.47
2017-10-20T06:09:03.996Z,18.10
2017-10-20T06:11:31.667Z,12.00
2017-10-20T06:13:59.380Z,11.53
2017-10-20T06:16:27.052Z,11.63
2017-10-20T06:18:54.769Z,11.23
2017-10-20T06:21:23.199Z,12.60
2017-10-20T06:23:50.903Z,12.70
2017-10-20T06:26:19.379Z,12.43
2017-10-20T06:28:47.819Z,11.20
2017-10-20T06:31:15.527Z,11.17
2017-10-20T06:33:43.986Z,10.57
2017-10-20T06:36:12.471Z,12.17
2017-10-20T06:38:40.908Z,43.93
2017-10-20T06:41:08.775Z,12.83
2017-10-20T06:43:36.459Z,13.37
2017-10-20T06:46:04.189Z,12.10
2017-10-20T06:48:31.880Z,13.03
2017-10-20T06:50:59.636Z,12.00
2017-10-20T06:53:27.336Z,12.70
2017-10-20T06:55:55.071Z,11.47
2017-10-20T06:58:23.547Z,12.30
2017-10-20T07:00:51.274Z,12.47
2017-10-20T07:03:18.983Z,9.97
2017-10-20T07:05:47.500Z,10.60
2017-10-20T07:08:15.196Z,11.43
2017-10-20T07:10:42.936Z,12.37
2017-10-20T07:13:10.659Z,12.23
2017-10-20T07:15:38.499Z,13.30
2017-10-20T07:18:09.908Z,13.20
2017-10-20T07:20:53.393Z,13.23
2017-10-20T07:23:21.108Z,13.33
2017-10-20T07:25:48.844Z,12.50
2017-10-20T07:28:16.548Z,13.40
2017-10-20T07:30:44.320Z,13.47
2017-10-20T07:33:12.895Z,12.23
2017-10-20T07:35:41.434Z,17.63
2017-10-20T07:38:09.153Z,13.07
2017-10-20T07:40:36.910Z,12.40
2017-10-20T07:43:05.377Z,12.83
2017-10-20T07:45:33.872Z,13.57
2017-10-20T07:48:01.618Z,12.60
2017-10-20T07:50:30.128Z,12.97
2017-10-20T07:52:57.798Z,13.07
2017-10-20T07:55:25.588Z,13.00
2017-10-20T07:57:53.259Z,13.27
2017-10-20T08:00:21.004Z,13.30
2017-10-20T08:02:48.680Z,16.40
2017-10-20T08:05:16.413Z,13.33
2017-10-20T08:07:44.088Z,12.07
2017-10-20T08:10:11.799Z,12.10
2017-10-20T08:12:39.471Z,14.90
2017-10-20T08:15:07.187Z,12.40
2017-10-20T08:17:34.862Z,12.10
2017-10-20T08:20:03.352Z,11.90
2017-10-20T08:22:31.787Z,12.30
2017-10-20T08:24:59.499Z,12.33
2017-10-20T08:27:27.172Z,11.50
2017-10-20T08:29:54.887Z,12.83
2017-10-20T08:32:24.772Z,12.53
2017-10-20T08:34:53.916Z,12.20
2017-10-20T08:37:22.349Z,12.27
2017-10-20T08:39:51.694Z,13.10
2017-10-20T08:42:20.153Z,13.77
2017-10-20T08:44:48.796Z,13.07
2017-10-20T08:47:18.015Z,12.20
2017-10-20T08:49:46.607Z,12.90
2017-10-20T08:52:15.022Z,11.70
2017-10-20T08:54:43.633Z,12.30
2017-10-20T08:57:12.036Z,12.30
2017-10-20T08:59:41.452Z,12.33
2017-10-20T09:02:09.940Z,11.70
2017-10-20T09:04:37.711Z,13.17
2017-10-20T09:07:05.388Z,12.27
2017-10-20T09:09:33.063Z,12.37
2017-10-20T09:12:00.823Z,13.60
2017-10-20T09:14:28.504Z,12.83
2017-10-20T09:16:56.215Z,14.47
2017-10-20T09:19:23.894Z,13.33
2017-10-20T09:21:51.612Z,13.50
2017-10-20T09:24:20.094Z,14.83
2017-10-20T09:26:48.572Z,13.50
2017-10-20T09:29:17.111Z,13.87
2017-10-20T09:31:44.823Z,14.00
2017-10-20T09:34:13.314Z,14.03
2017-10-20T09:36:41.026Z,14.77
2017-10-20T09:39:08.707Z,15.60
2017-10-20T09:41:37.187Z,14.77
2017-10-20T09:44:05.676Z,15.70
2017-10-20T09:46:34.193Z,15.47
2017-10-20T09:49:01.904Z,13.90
2017-10-20T09:51:31.623Z,13.67
2017-10-20T09:54:00.021Z,15.47
2017-10-20T09:56:29.699Z,15.43
2017-10-20T09:58:59.619Z,15.80
2017-10-20T10:01:29.864Z,14.70
2017-10-20T10:03:59.395Z,14.80
2017-10-20T10:06:33.151Z,14.43
2017-10-20T10:09:03.480Z,15.07
2017-10-20T10:11:33.069Z,15.10
2017-10-20T10:14:02.953Z,14.40
2017-10-20T10:16:33.543Z,13.93
2017-10-20T10:19:01.480Z,15.13
2017-10-20T10:21:30.140Z,12.30
2017-10-20T10:23:57.811Z,12.93
2017-10-20T10:26:27.698Z,11.90
2017-10-20T10:28:55.378Z,11.47
2017-10-20T10:31:23.872Z,11.77
2017-10-20T10:33:51.553Z,10.97
2017-10-20T10:36:19.264Z,10.50
2017-10-20T10:38:46.939Z,9.70
2017-10-20T10:41:15.456Z,10.73
2017-10-20T10:43:43.123Z,10.20
2017-10-20T10:46:10.879Z,9.57
2017-10-20T10:48:38.587Z,9.30
2017-10-20T10:51:06.303Z,8.80
2017-10-20T10:53:33.972Z,8.17
2017-10-20T10:56:01.688Z,9.30
2017-10-20T10:58:30.147Z,8.33
2017-10-20T11:00:57.895Z,7.97
2017-10-20T11:03:25.559Z,9.43
2017-10-20T11:06:05.215Z,8.47
2017-10-20T11:08:45.697Z,8.87
2017-10-20T11:11:25.484Z,8.80
2017-10-20T11:13:53.212Z,8.80
2017-10-20T11:16:20.935Z,7.93
2017-10-20T11:18:48.596Z,8.00
2017-10-20T11:21:17.076Z,8.03
2017-10-20T11:23:45.531Z,7.77
2017-10-20T11:26:13.268Z,7.47
2017-10-20T11:28:40.959Z,6.60
2017-10-20T11:31:10.575Z,5.77
2017-10-20T11:33:38.939Z,5.83
2017-10-20T11:36:07.478Z,6.10
2017-10-20T11:38:35.894Z,6.10
2017-10-20T11:41:04.370Z,5.10
2017-10-20T11:43:32.720Z,6.27
2017-10-20T11:46:01.279Z,6.10
2017-10-20T11:48:28.961Z,6.20
2017-10-20T11:50:56.679Z,6.20
2017-10-20T11:53:25.123Z,5.70
2017-10-20T11:55:52.848Z,6.97
2017-10-20T11:58:20.515Z,8.07
2017-10-20T12:00:48.226Z,8.10
2017-10-20T12:03:16.722Z,7.07
2017-10-20T12:05:45.220Z,5.83
2017-10-20T12:08:12.911Z,4.83
2017-10-20T12:10:40.588Z,3.10
2017-10-20T12:13:08.335Z,2.37
2017-10-20T12:15:36.065Z,2.27
2017-10-20T12:18:03.792Z,1.73
2017-10-20T12:20:32.225Z,2.20
2017-10-20T12:22:59.935Z,1.97
2017-10-20T12:25:28.389Z,2.30
2017-10-20T12:27:56.104Z,1.63
2017-10-20T12:30:23.772Z,2.30
2017-10-20T12:32:51.483Z,2.00
2017-10-20T12:35:19.920Z,2.10
2017-10-20T12:37:47.619Z,1.70
2017-10-20T12:40:16.053Z,1.67
2017-10-20T12:42:43.755Z,1.30
2017-10-20T12:45:12.184Z,1.10
2017-10-20T12:47:39.885Z,1.00
2017-10-20T12:50:07.564Z,0.97
2017-10-20T12:52:36.043Z,0.97
2017-10-20T12:55:04.476Z,0.87
2017-10-20T12:57:32.207Z,1.10
2017-10-20T12:59:59.883Z,1.40
2017-10-20T13:02:27.587Z,1.20
2017-10-20T13:04:55.291Z,1.60
2017-10-20T13:07:22.995Z,1.10
2017-10-20T13:09:50.656Z,2.60
2017-10-20T13:12:18.364Z,1.20
2017-10-20T13:14:46.028Z,1.23
2017-10-20T13:17:13.740Z,1.13
2017-10-20T13:19:41.409Z,1.07
2017-10-20T13:22:09.904Z,0.97
2017-10-20T13:24:38.331Z,1.00
2017-10-20T13:27:06.041Z,0.93
2017-10-20T13:29:33.856Z,1.00
2017-10-20T13:32:01.556Z,1.10
2017-10-20T13:34:29.986Z,1.50
2017-10-20T13:36:57.704Z,1.13
2017-10-20T13:39:26.212Z,3.20
2017-10-20T13:41:53.934Z,1.20
2017-10-20T13:44:22.388Z,0.90
2017-10-20T13:46:50.091Z,1.50
2017-10-20T13:49:17.747Z,1.23
2017-10-20T13:51:45.464Z,1.00
2017-10-20T13:54:13.129Z,1.90
2017-10-20T13:56:40.839Z,1.20
2017-10-20T13:59:08.504Z,1.10
2017-10-20T14:01:36.209Z,1.17
2017-10-20T14:04:03.916Z,1.20
2017-10-20T14:06:31.661Z,1.00
2017-10-20T14:09:00.086Z,1.23
2017-10-20T14:11:27.796Z,1.50
2017-10-20T14:13:56.226Z,1.30
2017-10-20T14:16:23.928Z,1.53
2017-10-20T14:18:52.355Z,1.33
2017-10-20T14:21:20.055Z,1.20
2017-10-20T14:23:47.715Z,1.07
2017-10-20T14:26:16.207Z,1.20
2017-10-20T14:28:44.643Z,1.20
2017-10-20T14:31:12.348Z,1.30
2017-10-20T14:33:40.816Z,1.10
2017-10-20T14:36:09.255Z,2.07
2017-10-20T14:38:36.955Z,1.13
2017-10-20T14:41:05.380Z,1.73
2017-10-20T14:43:33.084Z,1.40
2017-10-20T14:46:01.516Z,1.10
2017-10-20T14:48:29.216Z,1.33
2017-10-20T14:50:56.884Z,1.33
2017-10-20T14:53:25.367Z,1.27
2017-10-20T14:55:53.802Z,1.07
2017-10-20T14:58:21.508Z,1.23
2017-10-20T15:00:49.939Z,1.37
2017-10-20T15:03:17.640Z,1.60
2017-10-20T15:05:46.077Z,1.40
2017-10-20T15:08:13.785Z,1.50
2017-10-20T15:10:42.211Z,1.10
2017-10-20T15:13:09.910Z,1.47
2017-10-20T15:15:37.573Z,1.20
2017-10-20T15:18:06.042Z,1.20
2017-10-20T15:20:34.482Z,1.30
2017-10-20T15:23:02.189Z,1.30
2017-10-20T15:25:30.625Z,1.70
2017-10-20T15:27:58.330Z,1.70
2017-10-20T15:30:26.755Z,1.10
2017-10-20T15:32:54.460Z,1.43
2017-10-20T15:35:22.131Z,1.50
2017-10-20T15:37:50.610Z,1.30
2017-10-20T15:40:19.042Z,1.60
2017-10-20T15:42:46.744Z,1.70
2017-10-20T15:45:15.178Z,1.50
2017-10-20T15:47:42.891Z,1.20
2017-10-20T15:50:11.320Z,1.30
2017-10-20T15:52:39.020Z,1.50
2017-10-20T15:55:07.454Z,1.60
2017-10-20T15:57:35.168Z,1.47
2017-10-20T16:00:03.618Z,1.20
2017-10-20T16:02:31.336Z,1.60
2017-10-20T16:04:58.994Z,1.50
2017-10-20T16:07:26.701Z,1.67
2017-10-20T16:09:54.361Z,1.57
2017-10-20T16:12:22.076Z,1.60
2017-10-20T16:14:49.735Z,3.70
2017-10-20T16:17:17.434Z,4.60
2017-10-20T16:19:45.096Z,2.70
2017-10-20T16:22:12.805Z,2.43
2017-10-20T16:24:40.496Z,2.40
2017-10-20T16:27:08.200Z,1.43
2017-10-20T16:29:36.635Z,1.60
2017-10-20T16:32:04.344Z,1.60
2017-10-20T16:34:32.772Z,1.80
2017-10-20T16:37:00.471Z,1.50
2017-10-20T16:39:28.935Z,1.40
2017-10-20T16:41:56.679Z,2.03
2017-10-20T16:44:24.383Z,1.77
2017-10-20T16:46:52.193Z,2.10
2017-10-20T16:49:19.851Z,1.57
2017-10-20T16:51:47.543Z,1.80
2017-10-20T16:54:16.032Z,1.60
2017-10-20T16:56:44.459Z,1.60
2017-10-20T16:59:12.163Z,1.80
2017-10-20T17:01:40.590Z,1.53
2017-10-20T17:04:08.300Z,1.50
2017-10-20T17:06:36.734Z,1.30
2017-10-20T17:09:04.568Z,3.07
2017-10-20T17:11:32.240Z,3.50
2017-10-20T17:13:59.955Z,2.83
2017-10-20T17:16:27.627Z,2.30
2017-10-20T17:18:56.096Z,1.70
2017-10-20T17:21:24.899Z,10.70
2017-10-20T17:23:53.420Z,7.03
2017-10-20T17:26:21.088Z,8.40
2017-10-20T17:28:48.800Z,7.30
2017-10-20T17:31:16.465Z,4.10
2017-10-20T17:33:44.163Z,2.57
2017-10-20T17:36:11.836Z,2.20
2017-10-20T17:38:39.541Z,2.30
2017-10-20T17:41:07.230Z,2.20
2017-10-20T17:43:34.943Z,1.80
2017-10-20T17:46:03.403Z,2.17
2017-10-20T17:48:31.108Z,2.93
2017-10-20T17:50:58.807Z,2.70
2017-10-20T17:53:26.511Z,2.50
2017-10-20T17:55:54.951Z,1.70
2017-10-20T17:58:22.670Z,2.17
2017-10-20T18:00:50.336Z,2.00
2017-10-20T18:03:18.044Z,2.33
2017-10-20T18:05:45.707Z,2.83
2017-10-20T18:08:13.420Z,2.67
2017-10-20T18:10:41.092Z,2.00
2017-10-20T18:13:08.817Z,2.27
2017-10-20T18:15:37.268Z,2.00
2017-10-20T18:18:05.161Z,2.30
2017-10-20T18:20:32.824Z,2.57
2017-10-20T18:23:00.539Z,2.70
2017-10-20T18:25:28.213Z,3.37
2017-10-20T18:27:55.929Z,4.00
2017-10-20T18:30:23.592Z,2.90
2017-10-20T18:32:51.299Z,3.23
2017-10-20T18:35:18.972Z,3.07
2017-10-20T18:37:47.471Z,4.37
2017-10-20T18:40:15.152Z,3.80
2017-10-20T18:42:42.866Z,5.20
2017-10-20T18:45:11.325Z,3.53
2017-10-20T18:47:39.055Z,4.10
2017-10-20T18:50:06.724Z,4.07
2017-10-20T18:52:34.454Z,3.73
2017-10-20T18:55:02.124Z,3.70
2017-10-20T18:57:29.835Z,3.20
2017-10-20T18:59:57.542Z,2.70
2017-10-20T19:02:25.232Z,3.00
2017-10-20T19:04:52.957Z,2.67
2017-10-20T19:07:20.642Z,3.67
2017-10-20T19:09:48.380Z,3.07
2017-10-20T19:12:16.062Z,2.60
2017-10-20T19:14:43.768Z,2.53
2017-10-20T19:17:12.199Z,2.57
2017-10-20T19:19:39.903Z,3.07
2017-10-20T19:22:08.327Z,2.50
2017-10-20T19:24:36.044Z,2.70
2017-10-20T19:27:04.480Z,2.43
2017-10-20T19:29:33.180Z,2.50
2017-10-20T19:32:00.845Z,2.80
2017-10-20T19:34:28.568Z,2.43
2017-10-20T19:36:56.231Z,2.20
2017-10-20T19:39:23.936Z,2.43
2017-10-20T19:41:52.369Z,3.20
2017-10-20T19:44:20.080Z,2.80
2017-10-20T19:46:48.547Z,2.93
2017-10-20T19:49:20.522Z,2.67
2017-10-20T19:51:50.229Z,3.57
2017-10-20T19:54:18.240Z,2.30
2017-10-20T19:56:50.683Z,3.30
2017-10-20T19:59:18.743Z,3.63
2017-10-20T20:01:47.172Z,3.20
2017-10-20T20:04:14.880Z,2.70
2017-10-20T20:06:43.347Z,2.50
2017-10-20T20:09:11.992Z,2.77
2017-10-20T20:11:39.696Z,2.80
2017-10-20T20:14:08.193Z,2.60
2017-10-20T20:16:35.856Z,2.63
2017-10-20T20:19:03.611Z,3.30
2017-10-20T20:21:31.328Z,3.53
2017-10-20T20:23:59.087Z,3.10
2017-10-20T20:26:26.817Z,3.20
2017-10-20T20:28:54.580Z,2.30
2017-10-20T20:31:23.913Z,2.50
2017-10-20T20:33:54.189Z,2.77
2017-10-20T20:36:21.900Z,2.50
2017-10-20T20:38:49.656Z,3.73
2017-10-20T20:41:17.332Z,2.87
2017-10-20T20:43:45.802Z,2.40
2017-10-20T20:46:13.479Z,2.80
2017-10-20T20:48:41.980Z,3.20
2017-10-20T20:51:09.879Z,4.07
2017-10-20T20:53:39.095Z,4.20
2017-10-20T20:56:06.755Z,4.13
2017-10-20T20:58:34.455Z,3.10
2017-10-20T21:01:02.132Z,3.00
2017-10-20T21:03:29.903Z,2.70
2017-10-20T21:05:57.567Z,3.30
2017-10-20T21:08:25.263Z,2.40
2017-10-20T21:10:58.217Z,2.77
2017-10-20T21:13:25.920Z,3.00
2017-10-20T21:15:54.349Z,3.30
2017-10-20T21:18:22.138Z,3.20
2017-10-20T21:20:49.800Z,5.00
2017-10-20T21:23:17.499Z,5.20
2017-10-20T21:25:45.163Z,4.13
2017-10-20T21:28:12.866Z,4.43
2017-10-20T21:30:40.576Z,3.83
2017-10-20T21:33:08.246Z,3.30
2017-10-20T21:35:35.949Z,3.97
2017-10-20T21:38:03.920Z,3.67
2017-10-20T21:40:31.620Z,3.03
2017-10-20T21:42:59.286Z,2.80
2017-10-20T21:45:27.004Z,3.73
2017-10-20T21:47:54.672Z,3.40
2017-10-20T21:50:23.151Z,3.77
2017-10-20T21:52:51.598Z,3.40
2017-10-20T21:55:19.312Z,3.50
2017-10-20T21:57:46.984Z,3.33
2017-10-20T22:00:14.703Z,3.87
2017-10-20T22:02:42.439Z,3.80
2017-10-20T22:05:10.155Z,3.77
2017-10-20T22:07:37.831Z,3.00
2017-10-20T22:10:05.556Z,2.80
2017-10-20T22:12:33.987Z,3.07
2017-10-20T22:15:01.688Z,3.70
2017-10-20T22:17:29.389Z,3.73
2017-10-20T22:19:57.115Z,3.40
2017-10-20T22:22:25.538Z,3.60
2017-10-20T22:24:53.264Z,3.03
2017-10-20T22:27:21.078Z,3.40
2017-10-20T22:29:48.798Z,3.40
2017-10-20T22:32:16.478Z,3.70
2017-10-20T22:34:44.186Z,3.10
2017-10-20T22:37:11.852Z,3.30
2017-10-20T22:39:40.329Z,3.37
2017-10-20T22:42:08.785Z,3.33
2017-10-20T22:44:36.504Z,2.90
2017-10-20T22:47:04.181Z,2.77
2017-10-20T22:49:31.892Z,2.90
2017-10-20T22:52:00.319Z,3.20
2017-10-20T22:54:28.028Z,3.53
2017-10-20T22:56:56.572Z,3.20
2017-10-20T22:59:24.280Z,3.03
2017-10-20T23:01:52.709Z,3.03
2017-10-20T23:04:20.420Z,2.77
2017-10-20T23:06:48.852Z,3.40
2017-10-20T23:09:16.649Z,3.50
2017-10-20T23:11:45.071Z,3.30
2017-10-20T23:14:12.771Z,3.03
2017-10-20T23:16:40.497Z,3.40
2017-10-20T23:19:08.199Z,2.93
2017-10-20T23:21:35.871Z,3.17
2017-10-20T23:24:04.342Z,2.70
2017-10-20T23:26:32.766Z,4.27
2017-10-20T23:29:00.512Z,4.47
2017-10-20T23:31:28.173Z,4.20
2017-10-20T23:33:55.895Z,3.20
2017-10-20T23:36:23.552Z,3.53
2017-10-20T23:38:51.327Z,3.87
2017-10-20T23:41:19.751Z,3.40
2017-10-20T23:43:47.468Z,3.63
2017-10-20T23:46:15.899Z,3.40
2017-10-20T23:48:43.546Z,2.67
2017-10-20T23:51:11.303Z,3.30
2017-10-20T23:53:38.956Z,2.83
2017-10-20T23:56:06.655Z,2.60
2017-10-20T23:58:34.321Z,2.77
